createdAt,value
2018-01-12T00:01:13.420Z,51.63
2018-01-12T00:03:41.311Z,53.10
2018-01-12T00:06:09.320Z,50.40
2018-01-12T00:08:37.247Z,53.00
2018-01-12T00:11:05.276Z,52.30
2018-01-12T00:13:33.347Z,55.27
2018-01-12T00:16:01.426Z,55.90
2018-01-12T00:18:29.396Z,53.73
2018-01-12T00:20:57.345Z,54.40
2018-01-12T00:23:25.232Z,52.07
2018-01-12T00:25:53.147Z,52.70
2018-01-12T00:28:21.095Z,50.77
2018-01-12T00:30:48.999Z,50.40
2018-01-12T00:33:16.915Z,47.80
2018-01-12T00:35:44.806Z,53.70
2018-01-12T00:38:12.939Z,52.67
2018-01-12T00:40:40.845Z,53.33
2018-01-12T00:43:08.755Z,52.23
2018-01-12T00:45:36.812Z,51.57
2018-01-12T00:48:04.756Z,53.10
2018-01-12T00:50:32.629Z,54.07
2018-01-12T00:53:00.512Z,52.90
2018-01-12T00:55:28.348Z,52.33
2018-01-12T00:57:56.220Z,54.00
2018-01-12T01:00:24.103Z,52.60
2018-01-12T01:02:51.948Z,54.30
2018-01-12T01:05:19.808Z,50.73
2018-01-12T01:07:47.862Z,45.27
2018-01-12T01:10:15.726Z,47.00
2018-01-12T01:12:43.633Z,49.30
2018-01-12T01:15:11.532Z,52.80
2018-01-12T01:17:39.451Z,51.27
2018-01-12T01:20:07.345Z,51.63
2018-01-12T01:22:35.378Z,50.47
2018-01-12T01:25:03.223Z,50.03
2018-01-12T01:27:31.101Z,54.23
2018-01-12T01:29:58.957Z,49.23
2018-01-12T01:32:26.795Z,51.10
2018-01-12T01:34:54.639Z,50.17
2018-01-12T01:37:22.522Z,50.10
2018-01-12T01:39:50.357Z,46.97
2018-01-12T01:42:18.206Z,48.93
2018-01-12T01:44:46.068Z,48.77
2018-01-12T01:47:13.900Z,49.07
2018-01-12T01:49:41.738Z,49.77
2018-01-12T01:52:09.641Z,49.27
2018-01-12T01:54:37.488Z,49.17
2018-01-12T01:57:05.405Z,46.43
2018-01-12T01:59:33.448Z,46.70
2018-01-12T02:02:01.297Z,51.10
2018-01-12T02:04:29.226Z,45.77
2018-01-12T02:06:57.096Z,48.60
2018-01-12T02:09:24.948Z,47.60
2018-01-12T02:11:52.860Z,47.50
2018-01-12T02:14:22.804Z,42.07
2018-01-12T02:16:50.871Z,48.13
2018-01-12T02:19:18.794Z,46.60
2018-01-12T02:21:46.659Z,47.37
2018-01-12T02:24:14.508Z,49.60
2018-01-12T02:26:42.399Z,48.33
2018-01-12T02:29:10.276Z,47.63
2018-01-12T02:31:38.142Z,48.67
2018-01-12T02:34:06.015Z,47.03
2018-01-12T02:36:33.916Z,48.73
2018-01-12T02:39:01.812Z,47.40
2018-01-12T02:41:29.658Z,45.67
2018-01-12T02:43:57.515Z,47.97
2018-01-12T02:46:25.348Z,47.10
2018-01-12T02:48:53.343Z,48.40
2018-01-12T02:51:21.241Z,47.07
2018-01-12T02:53:49.168Z,48.50
2018-01-12T02:56:17.006Z,48.67
2018-01-12T02:58:44.877Z,49.57
2018-01-12T03:01:12.764Z,48.37
2018-01-12T03:03:40.612Z,50.13
2018-01-12T03:06:08.509Z,44.53
2018-01-12T03:08:36.366Z,48.67
2018-01-12T03:11:04.223Z,49.23
2018-01-12T03:13:32.120Z,50.80
2018-01-12T03:15:59.952Z,49.67
2018-01-12T03:18:27.838Z,49.77
2018-01-12T03:20:56.011Z,51.67
2018-01-12T03:23:23.865Z,48.90
2018-01-12T03:28:32.172Z,50.00
2018-01-12T03:31:00.013Z,47.67
2018-01-12T03:33:27.866Z,50.63
2018-01-12T03:35:55.721Z,48.80
2018-01-12T03:38:23.592Z,51.97
2018-01-12T03:40:51.432Z,48.53
2018-01-12T03:43:19.300Z,48.80
2018-01-12T03:45:47.153Z,50.90
2018-01-12T03:48:15.125Z,49.27
2018-01-12T03:50:43.006Z,52.63
2018-01-12T03:53:10.835Z,50.60
2018-01-12T03:55:39.625Z,50.90
2018-01-12T03:58:07.500Z,50.63
2018-01-12T04:00:35.355Z,53.10
2018-01-12T04:03:03.208Z,53.83
2018-01-12T04:05:31.099Z,52.80
2018-01-12T04:07:58.934Z,54.10
2018-01-12T04:10:26.801Z,52.93
2018-01-12T04:12:54.700Z,51.47
2018-01-12T04:15:22.716Z,53.87
2018-01-12T04:17:50.567Z,53.40
2018-01-12T04:20:18.428Z,52.20
2018-01-12T04:22:46.364Z,54.47
2018-01-12T04:25:14.234Z,53.20
2018-01-12T04:27:42.210Z,51.17
2018-01-12T04:30:10.064Z,52.30
2018-01-12T04:32:37.927Z,53.20
2018-01-12T04:35:05.816Z,54.60
2018-01-12T04:37:33.723Z,52.00
2018-01-12T04:40:01.647Z,54.33
2018-01-12T04:42:29.499Z,52.30
2018-01-12T04:44:57.501Z,48.43
2018-01-12T04:47:25.344Z,49.37
2018-01-12T04:49:53.208Z,49.20
2018-01-12T04:52:21.072Z,48.43
2018-01-12T04:54:48.908Z,46.50
2018-01-12T04:57:16.768Z,50.87
2018-01-12T04:59:44.600Z,47.70
2018-01-12T05:02:12.454Z,49.17
2018-01-12T05:04:40.332Z,45.90
2018-01-12T05:07:08.188Z,47.90
2018-01-12T05:09:36.045Z,43.60
2018-01-12T05:12:03.910Z,41.40
2018-01-12T05:14:31.753Z,44.30
2018-01-12T05:16:59.598Z,44.73
2018-01-12T05:19:27.481Z,42.50
2018-01-12T05:21:55.516Z,40.00
2018-01-12T05:24:23.416Z,45.27
2018-01-12T05:26:51.311Z,42.13
2018-01-12T05:29:19.180Z,42.97
2018-01-12T05:31:47.852Z,41.17
2018-01-12T05:34:15.751Z,42.53
2018-01-12T05:36:43.729Z,44.70
2018-01-12T05:39:11.605Z,42.80
2018-01-12T05:41:39.528Z,40.00
2018-01-12T05:44:07.393Z,38.20
2018-01-12T05:46:35.232Z,39.57
2018-01-12T05:49:03.212Z,37.23
2018-01-12T05:51:31.075Z,40.23
2018-01-12T05:53:58.929Z,38.30
2018-01-12T05:56:26.812Z,40.70
2018-01-12T05:58:54.692Z,38.80
2018-01-12T06:01:28.512Z,36.67
2018-01-12T06:04:02.372Z,39.87
2018-01-12T06:06:30.303Z,40.03
2018-01-12T06:08:58.144Z,28.20
2018-01-12T06:11:25.999Z,32.00
2018-01-12T06:13:53.884Z,29.37
2018-01-12T06:16:21.733Z,37.50
2018-01-12T06:18:49.572Z,37.37
2018-01-12T06:21:17.476Z,38.63
2018-01-12T06:23:45.323Z,36.00
2018-01-12T06:26:13.254Z,34.43
2018-01-12T06:28:41.180Z,33.80
2018-01-12T06:31:09.060Z,30.47
2018-01-12T06:33:36.933Z,27.30
2018-01-12T06:36:04.881Z,35.27
2018-01-12T06:38:32.744Z,27.17
2018-01-12T06:41:00.617Z,29.13
2018-01-12T06:43:28.492Z,27.80
2018-01-12T06:45:56.495Z,27.40
2018-01-12T06:48:24.369Z,30.30
2018-01-12T06:50:52.240Z,28.23
2018-01-12T06:53:20.076Z,33.60
2018-01-12T06:55:47.963Z,31.20
2018-01-12T06:58:15.852Z,31.57
2018-01-12T07:00:43.740Z,30.93
2018-01-12T07:03:11.593Z,29.90
2018-01-12T07:05:39.470Z,31.70
2018-01-12T07:08:07.343Z,33.23
2018-01-12T07:10:35.202Z,29.00
2018-01-12T07:13:03.073Z,28.27
2018-01-12T07:15:30.919Z,31.90
2018-01-12T07:17:58.751Z,31.07
2018-01-12T07:20:32.759Z,35.20
2018-01-12T07:23:06.621Z,34.30
2018-01-12T07:25:34.540Z,34.10
2018-01-12T07:28:02.378Z,31.47
2018-01-12T07:30:30.765Z,30.23
2018-01-12T07:32:58.819Z,29.90
2018-01-12T07:35:26.660Z,32.47
2018-01-12T07:37:54.500Z,29.60
2018-01-12T07:40:22.389Z,31.43
2018-01-12T07:42:50.252Z,30.73
2018-01-12T07:45:18.156Z,30.67
2018-01-12T07:47:46.045Z,26.07
2018-01-12T07:50:13.904Z,28.87
2018-01-12T07:52:47.890Z,30.00
2018-01-12T07:55:15.736Z,23.17
2018-01-12T07:57:43.563Z,28.27
2018-01-12T08:00:11.444Z,27.47
2018-01-12T08:02:45.332Z,29.57
2018-01-12T08:05:13.199Z,30.73
2018-01-12T08:07:41.052Z,28.33
2018-01-12T08:10:08.896Z,29.17
2018-01-12T08:12:36.752Z,30.17
2018-01-12T08:15:04.632Z,29.20
2018-01-12T08:17:32.480Z,29.97
2018-01-12T08:20:00.371Z,29.97
2018-01-12T08:22:28.209Z,29.80
2018-01-12T08:25:02.607Z,28.80
2018-01-12T08:27:30.495Z,30.67
2018-01-12T08:29:58.355Z,27.33
2018-01-12T08:32:26.232Z,28.13
2018-01-12T08:34:54.062Z,26.13
2018-01-12T08:37:21.956Z,29.10
2018-01-12T08:39:49.865Z,29.00
2018-01-12T08:42:17.708Z,27.03
2018-01-12T08:44:45.536Z,26.33
2018-01-12T08:47:13.427Z,27.10
2018-01-12T08:49:41.269Z,28.30
2018-01-12T08:52:09.124Z,27.87
2018-01-12T08:54:37.069Z,26.67
2018-01-12T08:57:04.992Z,27.73
2018-01-12T08:59:32.861Z,28.87
2018-01-12T09:02:00.793Z,27.97
2018-01-12T09:04:28.623Z,28.43
2018-01-12T09:06:56.513Z,28.90
2018-01-12T09:09:24.440Z,29.77
2018-01-12T09:11:52.346Z,32.27
2018-01-12T09:14:26.240Z,30.63
2018-01-12T09:16:54.080Z,31.77
2018-01-12T09:19:28.060Z,30.80
2018-01-12T09:21:56.860Z,28.97
2018-01-12T09:24:24.716Z,29.00
2018-01-12T09:26:52.718Z,29.00
2018-01-12T09:29:20.548Z,28.70
2018-01-12T09:31:49.410Z,32.73
2018-01-12T09:34:23.448Z,27.63
2018-01-12T09:36:51.295Z,30.27
2018-01-12T09:39:25.255Z,27.33
2018-01-12T09:41:53.128Z,27.10
2018-01-12T09:44:21.000Z,26.00
2018-01-12T09:46:49.792Z,28.90
2018-01-12T09:49:21.632Z,29.37
2018-01-12T09:51:49.639Z,30.73
2018-01-12T09:54:17.517Z,29.73
2018-01-12T09:56:45.395Z,34.27
2018-01-12T09:59:13.382Z,30.80
2018-01-12T10:01:41.239Z,31.27
2018-01-12T10:04:09.219Z,31.07
2018-01-12T10:06:37.132Z,34.23
2018-01-12T10:09:05.038Z,32.40
2018-01-12T10:11:32.871Z,30.27
2018-01-12T10:14:00.760Z,29.03
2018-01-12T10:16:28.604Z,27.80
2018-01-12T10:18:57.376Z,30.07
2018-01-12T10:21:31.351Z,31.47
2018-01-12T10:23:59.208Z,30.40
2018-01-12T10:26:27.040Z,29.63
2018-01-12T10:29:01.078Z,28.40
2018-01-12T10:31:34.880Z,30.27
2018-01-12T10:34:06.740Z,28.37
2018-01-12T10:36:39.619Z,26.57
2018-01-12T10:39:13.663Z,27.77
2018-01-12T10:41:48.507Z,29.30
2018-01-12T10:44:16.372Z,29.63
2018-01-12T10:46:44.278Z,29.87
2018-01-12T10:49:18.204Z,30.83
2018-01-12T10:51:46.076Z,26.80
2018-01-12T10:54:15.769Z,29.40
2018-01-12T10:56:43.648Z,27.50
2018-01-12T10:59:11.522Z,26.40
2018-01-12T11:01:39.371Z,27.80
2018-01-12T11:04:07.438Z,26.47
2018-01-12T11:06:35.315Z,27.40
2018-01-12T11:09:03.190Z,27.80
2018-01-12T11:11:31.105Z,30.60
2018-01-12T11:13:59.062Z,29.63
2018-01-12T11:16:26.909Z,27.07
2018-01-12T11:18:54.833Z,29.87
2018-01-12T11:21:22.824Z,27.80
2018-01-12T11:23:50.659Z,30.63
2018-01-12T11:26:18.591Z,28.30
2018-01-12T11:28:46.437Z,29.30
2018-01-12T11:31:14.314Z,28.23
2018-01-12T11:33:42.207Z,28.43
2018-01-12T11:36:10.052Z,30.50
2018-01-12T11:38:37.900Z,29.27
2018-01-12T11:41:05.800Z,30.07
2018-01-12T11:43:33.642Z,30.00
2018-01-12T11:46:01.572Z,26.13
2018-01-12T11:48:29.434Z,28.47
2018-01-12T11:50:57.295Z,29.20
2018-01-12T11:53:25.172Z,29.20
2018-01-12T11:55:53.063Z,30.67
2018-01-12T11:58:20.939Z,26.97
2018-01-12T12:00:48.804Z,28.47
2018-01-12T12:03:16.689Z,24.33
2018-01-12T12:05:44.555Z,27.97
2018-01-12T12:08:12.420Z,25.37
2018-01-12T12:10:40.283Z,26.50
2018-01-12T12:13:08.133Z,31.27
2018-01-12T12:15:36.075Z,29.20
2018-01-12T12:18:04.035Z,22.90
2018-01-12T12:20:31.899Z,25.30
2018-01-12T12:22:59.726Z,30.33
2018-01-12T12:25:27.708Z,28.30
2018-01-12T12:27:55.566Z,29.50
2018-01-12T12:30:23.431Z,27.27
2018-01-12T12:32:51.295Z,30.17
2018-01-12T12:35:19.157Z,31.57
2018-01-12T12:37:47.039Z,30.70
2018-01-12T12:40:15.009Z,31.07
2018-01-12T12:42:42.860Z,30.27
2018-01-12T12:45:10.739Z,28.40
2018-01-12T12:47:38.695Z,31.53
2018-01-12T12:50:06.581Z,29.70
2018-01-12T12:52:34.620Z,32.50
2018-01-12T12:55:02.516Z,30.80
2018-01-12T12:57:30.461Z,28.10
2018-01-12T12:59:58.314Z,28.30
2018-01-12T13:02:26.199Z,33.10
2018-01-12T13:04:54.097Z,29.80
2018-01-12T13:07:22.034Z,32.47
2018-01-12T13:09:49.924Z,29.70
2018-01-12T13:12:17.799Z,26.10
2018-01-12T13:14:45.673Z,30.00
2018-01-12T13:17:13.622Z,32.47
2018-01-12T13:19:41.537Z,29.20
2018-01-12T13:22:09.394Z,20.53
2018-01-12T13:24:37.543Z,30.73
2018-01-12T13:27:05.551Z,30.50
2018-01-12T13:29:33.512Z,27.57
2018-01-12T13:32:01.390Z,29.40
2018-01-12T13:34:29.240Z,29.03
2018-01-12T13:36:57.088Z,29.77
2018-01-12T13:39:25.101Z,30.00
2018-01-12T13:41:52.987Z,31.37
2018-01-12T13:44:20.826Z,31.57
2018-01-12T13:46:49.072Z,31.17
2018-01-12T13:49:17.005Z,25.80
2018-01-12T13:51:44.856Z,31.77
2018-01-12T13:54:12.876Z,30.23
2018-01-12T13:56:40.750Z,31.53
2018-01-12T13:59:09.222Z,31.03
2018-01-12T14:01:37.110Z,31.57
2018-01-12T14:04:05.024Z,30.07
2018-01-12T14:06:32.871Z,30.27
2018-01-12T14:09:00.764Z,27.33
2018-01-12T14:11:28.604Z,32.07
2018-01-12T14:13:56.482Z,31.10
2018-01-12T14:16:24.339Z,32.40
2018-01-12T14:18:52.234Z,30.13
2018-01-12T14:21:20.060Z,30.80
2018-01-12T14:23:47.931Z,26.40
2018-01-12T14:26:15.780Z,31.93
2018-01-12T14:28:43.611Z,31.03
2018-01-12T14:31:11.482Z,34.10
2018-01-12T14:33:40.358Z,30.80
2018-01-12T14:36:08.220Z,30.40
2018-01-12T14:38:36.089Z,29.97
2018-01-12T14:41:03.939Z,29.90
2018-01-12T14:43:31.776Z,30.47
2018-01-12T14:45:59.649Z,30.80
2018-01-12T14:48:27.500Z,31.30
2018-01-12T14:50:55.337Z,31.90
2018-01-12T14:53:23.207Z,30.90
2018-01-12T14:55:51.060Z,32.37
2018-01-12T14:58:18.900Z,31.50
2018-01-12T15:00:46.795Z,32.60
2018-01-12T15:03:14.656Z,32.27
2018-01-12T15:05:42.502Z,28.17
2018-01-12T15:08:10.387Z,33.17
2018-01-12T15:10:38.334Z,33.20
2018-01-12T15:13:06.259Z,34.60
2018-01-12T15:15:34.139Z,34.23
2018-01-12T15:18:02.016Z,34.30
2018-01-12T15:20:29.896Z,33.77
2018-01-12T15:22:57.790Z,32.40
2018-01-12T15:25:25.640Z,35.07
2018-01-12T15:27:53.626Z,32.60
2018-01-12T15:30:21.572Z,32.77
2018-01-12T15:32:49.408Z,30.40
2018-01-12T15:35:17.251Z,33.80
2018-01-12T15:37:45.233Z,32.73
2018-01-12T15:40:13.101Z,35.07
2018-01-12T15:42:40.963Z,35.43
2018-01-12T15:45:08.952Z,33.70
2018-01-12T15:47:37.733Z,36.87
2018-01-12T15:50:05.598Z,34.67
2018-01-12T15:52:33.463Z,34.60
2018-01-12T15:55:01.325Z,36.27
2018-01-12T15:57:29.238Z,34.90
2018-01-12T15:59:57.117Z,37.27
2018-01-12T16:02:24.975Z,36.97
2018-01-12T16:04:52.825Z,37.10
2018-01-12T16:07:20.741Z,38.30
2018-01-12T16:09:48.647Z,37.87
2018-01-12T16:12:16.523Z,37.27
2018-01-12T16:14:44.383Z,36.47
2018-01-12T16:17:12.230Z,38.70
2018-01-12T16:19:40.082Z,34.97
2018-01-12T16:22:08.365Z,37.00
2018-01-12T16:24:36.204Z,39.17
2018-01-12T16:27:04.040Z,33.87
2018-01-12T16:29:32.079Z,32.77
2018-01-12T16:31:59.938Z,35.03
2018-01-12T16:34:27.786Z,39.63
2018-01-12T16:36:57.749Z,36.00
2018-01-12T16:39:25.580Z,38.07
2018-01-12T16:41:53.519Z,40.10
2018-01-12T16:44:21.407Z,35.90
2018-01-12T16:46:49.256Z,37.27
2018-01-12T16:49:17.153Z,40.53
2018-01-12T16:51:45.097Z,35.60
2018-01-12T16:54:12.956Z,33.37
2018-01-12T16:56:40.815Z,32.97
2018-01-12T16:59:08.719Z,39.27
2018-01-12T17:01:36.625Z,41.83
2018-01-12T17:04:04.488Z,39.53
2018-01-12T17:06:32.406Z,40.90
2018-01-12T17:09:02.196Z,36.27
2018-01-12T17:11:30.064Z,38.43
2018-01-12T17:13:58.011Z,34.37
2018-01-12T17:16:25.872Z,35.07
2018-01-12T17:18:54.005Z,36.57
2018-01-12T17:21:21.921Z,32.60
2018-01-12T17:23:49.757Z,32.37
2018-01-12T17:26:17.613Z,35.37
2018-01-12T17:28:45.516Z,31.23
2018-01-12T17:31:13.357Z,34.67
2018-01-12T17:33:41.209Z,31.80
2018-01-12T17:36:09.206Z,34.17
2018-01-12T17:38:37.070Z,30.70
2018-01-12T17:41:04.924Z,33.50
2018-01-12T17:43:32.791Z,28.97
2018-01-12T17:46:01.067Z,32.80
2018-01-12T17:48:28.930Z,34.57
2018-01-12T17:50:57.090Z,34.37
2018-01-12T17:53:24.944Z,31.47
2018-01-12T17:55:52.827Z,34.10
2018-01-12T17:58:20.695Z,34.80
2018-01-12T18:00:48.574Z,34.97
2018-01-12T18:03:16.543Z,34.30
2018-01-12T18:05:44.440Z,29.60
2018-01-12T18:08:12.316Z,31.40
2018-01-12T18:10:40.211Z,36.10
2018-01-12T18:13:08.136Z,34.80
2018-01-12T18:15:36.025Z,32.63
2018-01-12T18:18:03.878Z,28.90
2018-01-12T18:20:31.751Z,32.37
2018-01-12T18:22:59.650Z,35.60
2018-01-12T18:25:27.508Z,35.43
2018-01-12T18:27:55.410Z,32.20
2018-01-12T18:30:23.264Z,33.70
2018-01-12T18:32:51.110Z,33.23
2018-01-12T18:35:19.130Z,34.10
2018-01-12T18:37:47.256Z,30.07
2018-01-12T18:40:15.137Z,36.30
2018-01-12T18:42:43.005Z,38.23
2018-01-12T18:45:10.879Z,36.97
2018-01-12T18:47:38.903Z,33.00
2018-01-12T18:50:07.024Z,32.23
2018-01-12T18:52:34.889Z,37.60
2018-01-12T18:55:02.732Z,35.10
2018-01-12T18:57:30.618Z,35.73
2018-01-12T18:59:58.465Z,36.23
2018-01-12T19:02:26.325Z,33.57
2018-01-12T19:04:54.200Z,36.97
2018-01-12T19:07:22.043Z,37.63
2018-01-12T19:09:49.946Z,37.40
2018-01-12T19:12:17.820Z,38.93
2018-01-12T19:14:45.746Z,34.47
2018-01-12T19:17:13.598Z,36.33
2018-01-12T19:19:41.656Z,36.50
2018-01-12T19:22:09.594Z,37.27
2018-01-12T19:24:37.490Z,37.77
2018-01-12T19:27:05.461Z,38.90
2018-01-12T19:29:33.361Z,38.47
2018-01-12T19:32:01.208Z,40.37
2018-01-12T19:34:29.094Z,39.40
2018-01-12T19:37:06.643Z,41.30
2018-01-12T19:39:35.365Z,41.47
2018-01-12T19:42:05.945Z,39.57
2018-01-12T19:44:33.899Z,41.70
2018-01-12T19:47:02.266Z,37.93
2018-01-12T19:49:31.542Z,38.17
2018-01-12T19:51:59.466Z,41.60
2018-01-12T19:54:27.410Z,35.57
2018-01-12T19:56:56.671Z,40.17
2018-01-12T19:59:24.573Z,41.50
2018-01-12T20:01:52.599Z,40.40
2018-01-12T20:04:20.473Z,39.50
2018-01-12T20:06:48.534Z,35.60
2018-01-12T20:09:16.440Z,38.90
2018-01-12T20:11:44.304Z,40.07
2018-01-12T20:14:12.192Z,38.13
2018-01-12T20:16:40.069Z,41.50
2018-01-12T20:19:07.940Z,42.20
2018-01-12T20:21:35.808Z,40.80
2018-01-12T20:24:03.765Z,39.27
2018-01-12T20:26:31.661Z,36.67
2018-01-12T20:28:59.587Z,39.73
2018-01-12T20:31:27.444Z,42.33
2018-01-12T20:33:55.268Z,42.97
2018-01-12T20:36:23.104Z,40.17
2018-01-12T20:38:51.070Z,42.40
2018-01-12T20:41:19.026Z,41.83
2018-01-12T20:43:48.868Z,41.10
2018-01-12T20:46:16.761Z,43.40
2018-01-12T20:48:48.792Z,36.73
2018-01-12T20:51:16.834Z,42.03
2018-01-12T20:53:44.681Z,38.53
2018-01-12T20:56:12.546Z,40.20
2018-01-12T20:58:40.443Z,40.93
2018-01-12T21:01:08.316Z,43.30
2018-01-12T21:03:36.273Z,42.37
2018-01-12T21:06:04.160Z,43.23
2018-01-12T21:08:32.010Z,44.13
2018-01-12T21:10:59.992Z,37.27
2018-01-12T21:13:27.862Z,41.03
2018-01-12T21:15:55.739Z,46.50
2018-01-12T21:18:24.613Z,44.70
2018-01-12T21:20:52.484Z,39.07
2018-01-12T21:23:20.344Z,41.50
2018-01-12T21:25:48.320Z,37.13
2018-01-12T21:28:16.187Z,41.80
2018-01-12T21:30:44.052Z,38.73
2018-01-12T21:33:11.929Z,37.77
2018-01-12T21:35:39.800Z,41.50
2018-01-12T21:38:07.647Z,40.57
2018-01-12T21:40:35.594Z,44.77
2018-01-12T21:43:03.500Z,34.67
2018-01-12T21:45:31.364Z,36.40
2018-01-12T21:47:59.233Z,41.37
2018-01-12T21:50:27.149Z,36.57
2018-01-12T21:52:55.013Z,41.80
2018-01-12T21:55:22.859Z,38.83
2018-01-12T21:57:50.890Z,39.97
2018-01-12T22:00:18.755Z,42.10
2018-01-12T22:02:46.628Z,41.13
2018-01-12T22:05:14.518Z,41.67
2018-01-12T22:07:42.388Z,41.47
2018-01-12T22:10:10.544Z,37.93
2018-01-12T22:12:38.525Z,40.90
2018-01-12T22:15:06.364Z,41.33
2018-01-12T22:17:34.520Z,40.47
2018-01-12T22:20:02.524Z,40.47
2018-01-12T22:22:30.368Z,43.00
2018-01-12T22:24:58.280Z,32.20
2018-01-12T22:27:26.103Z,41.83
2018-01-12T22:29:53.969Z,39.37
2018-01-12T22:32:21.843Z,41.23
2018-01-12T22:34:49.720Z,39.13
2018-01-12T22:37:17.551Z,40.23
2018-01-12T22:39:45.420Z,44.27
2018-01-12T22:42:13.449Z,41.90
2018-01-12T22:44:41.318Z,41.43
2018-01-12T22:47:09.162Z,42.90
2018-01-12T22:49:37.008Z,38.70
2018-01-12T22:52:04.892Z,36.57
2018-01-12T22:54:32.760Z,39.03
2018-01-12T22:57:00.649Z,38.17
2018-01-12T22:59:28.516Z,34.23
2018-01-12T23:01:56.399Z,41.27
2018-01-12T23:04:24.484Z,36.03
2018-01-12T23:06:52.360Z,36.20
2018-01-12T23:09:20.207Z,44.90
2018-01-12T23:11:48.048Z,42.10
2018-01-12T23:14:15.903Z,39.30
2018-01-12T23:16:43.764Z,36.93
2018-01-12T23:19:11.624Z,36.60
2018-01-12T23:21:39.495Z,41.63
2018-01-12T23:24:07.339Z,32.00
2018-01-12T23:26:35.209Z,34.10
2018-01-12T23:29:03.075Z,39.47
2018-01-12T23:31:30.956Z,34.70
2018-01-12T23:33:58.838Z,42.70
2018-01-12T23:36:26.795Z,41.37
2018-01-12T23:38:54.716Z,24.90
2018-01-12T23:41:22.582Z,44.37
2018-01-12T23:43:50.456Z,43.90
2018-01-12T23:46:18.333Z,43.40
2018-01-12T23:48:46.168Z,42.07
2018-01-12T23:51:14.065Z,40.47
2018-01-12T23:53:41.957Z,37.07
2018-01-12T23:56:09.832Z,38.90
2018-01-12T23:58:37.708Z,41.80
